Time;durP1;ratioP1;P1;durP2;ratioP2;P2;SDS_P1;SDS_P2;PMS_P1;PMS_P2;Temp;Humidity;BMP_temperature;BMP_pressure;BME280_temperature;BME280_humidity;BME280_pressure;Samples;Min_cycle;Max_cycle;Signal;HPM_P1;HPM_P2
2022/05/07 00:01:58;;;;;;;10.02;8.65;;;11.70;99.90;;;;;;5016694;28;20025;-76
2022/05/07 00:04:23;;;;;;;9.75;8.75;;;11.80;99.90;;;;;;5016469;28;20100;-75
2022/05/07 00:06:49;;;;;;;10.95;9.70;;;11.70;99.90;;;;;;5016241;28;20048;-75
2022/05/07 00:09:15;;;;;;;10.98;9.15;;;11.70;99.90;;;;;;5017035;28;20034;-75
2022/05/07 00:11:41;;;;;;;9.05;8.20;;;11.70;99.90;;;;;;4985035;28;20064;-75
2022/05/07 00:14:06;;;;;;;10.75;9.65;;;11.70;99.90;;;;;;4999794;28;20112;-75
2022/05/07 00:19:17;;;;;;;10.18;9.20;;;11.60;99.90;;;;;;5016632;28;20393;-75
2022/05/07 00:21:43;;;;;;;11.77;9.40;;;11.60;99.90;;;;;;5017165;28;20728;-75
2022/05/07 00:24:08;;;;;;;10.68;9.43;;;11.50;99.90;;;;;;5010796;28;20084;-75
2022/05/07 00:26:34;;;;;;;10.30;9.32;;;11.50;99.90;;;;;;5016878;28;20048;-75
2022/05/07 00:28:59;;;;;;;12.93;10.82;;;11.60;99.90;;;;;;5017851;28;20030;-75
2022/05/07 00:31:25;;;;;;;9.95;9.00;;;11.60;99.90;;;;;;4999275;28;20034;-75
2022/05/07 00:33:51;;;;;;;10.75;9.65;;;11.70;99.90;;;;;;5014504;28;20076;-76
2022/05/07 00:36:16;;;;;;;9.40;8.50;;;11.60;99.90;;;;;;5017454;28;20025;-75
2022/05/07 00:38:42;;;;;;;8.77;7.80;;;11.70;99.90;;;;;;5017011;28;20025;-75
2022/05/07 00:41:07;;;;;;;8.65;7.82;;;11.60;99.90;;;;;;5015974;28;20045;-75
2022/05/07 00:43:39;;;;;;;8.30;7.50;;;11.70;99.90;;;;;;5015967;28;20025;-75
2022/05/07 00:46:05;;;;;;;9.20;8.30;;;11.60;99.90;;;;;;5016899;28;20049;-75
2022/05/07 00:48:31;;;;;;;8.25;7.45;;;11.70;99.90;;;;;;5015023;28;20040;-75
2022/05/07 00:53:41;;;;;;;10.05;9.10;;;11.60;99.90;;;;;;5017403;28;20075;-75
2022/05/07 00:56:08;;;;;;;10.07;9.07;;;11.60;99.90;;;;;;4997944;28;20050;-76
2022/05/07 00:58:38;;;;;;;10.80;9.73;;;11.70;99.90;;;;;;5018069;28;20030;-75
2022/05/07 01:01:03;;;;;;;;;;;11.60;99.90;;;;;;5019758;28;20040;-75
2022/05/07 01:03:29;;;;;;;9.07;8.18;;;11.60;99.90;;;;;;5018948;28;19909;-75
2022/05/07 01:05:55;;;;;;;10.30;9.07;;;11.60;99.90;;;;;;5003346;28;20290;-75
2022/05/07 01:08:22;;;;;;;9.32;8.43;;;11.70;99.90;;;;;;5037247;28;20048;-76
2022/05/07 01:10:48;;;;;;;9.45;8.52;;;11.70;99.90;;;;;;5034093;28;20056;-75
2022/05/07 01:13:15;;;;;;;9.48;8.50;;;11.70;99.90;;;;;;5019001;28;20393;-75
2022/05/07 01:15:46;;;;;;;10.07;8.57;;;11.70;99.90;;;;;;5003256;28;20359;-75
2022/05/07 01:18:15;;;;;;;10.15;9.05;;;11.60;99.90;;;;;;5034374;28;20397;-75
2022/05/07 01:20:41;;;;;;;10.00;9.00;;;11.60;99.90;;;;;;4998362;28;20142;-75
2022/05/07 01:23:08;;;;;;;11.23;10.07;;;11.50;99.90;;;;;;5003894;28;20033;-75
2022/05/07 01:25:34;;;;;;;10.38;9.27;;;11.50;99.90;;;;;;5034879;28;20029;-75
2022/05/07 01:28:00;;;;;;;9.93;8.90;;;11.50;99.90;;;;;;5034942;28;20082;-78
2022/05/07 01:30:27;;;;;;;10.05;9.05;;;11.60;99.90;;;;;;5034658;28;20180;-75
2022/05/07 01:32:54;;;;;;;12.63;10.73;;;11.50;99.90;;;;;;5018828;28;20283;-75
2022/05/07 01:35:21;;;;;;;10.27;9.20;;;11.60;99.90;;;;;;5020342;28;20026;-75
2022/05/07 01:37:48;;;;;;;11.77;9.60;;;11.50;99.90;;;;;;5019819;28;20036;-75
2022/05/07 01:40:14;;;;;;;12.70;10.13;;;11.50;99.90;;;;;;5002040;28;20018;-75
2022/05/07 01:42:43;;;;;;;10.40;9.40;;;11.50;99.90;;;;;;5003248;28;20124;-75
2022/05/07 01:45:10;;;;;;;11.07;9.88;;;11.50;99.90;;;;;;5019242;28;20474;-75
2022/05/07 01:50:26;;;;;;;10.65;9.55;;;11.50;99.90;;;;;;5014564;28;20451;-75
2022/05/07 01:52:52;;;;;;;9.82;8.82;;;11.50;99.90;;;;;;5033964;28;20030;-75
2022/05/07 01:55:19;;;;;;;12.35;9.95;;;11.50;99.90;;;;;;5011961;28;20073;-75
2022/05/07 01:57:47;;;;;;;11.13;10.02;;;11.40;99.90;;;;;;5017512;28;20509;-75
2022/05/07 02:00:13;;;;;;;10.95;9.95;;;11.30;99.90;;;;;;4997713;28;20113;-75
2022/05/07 02:02:39;;;;;;;11.60;10.25;;;11.20;99.90;;;;;;5018794;28;20402;-75
2022/05/07 02:05:08;;;;;;;9.82;8.82;;;11.30;99.90;;;;;;5018250;28;20029;-75
2022/05/07 02:07:34;;;;;;;10.27;9.15;;;11.40;99.90;;;;;;5019035;28;20045;-75
2022/05/07 02:10:00;;;;;;;10.85;9.73;;;11.30;99.90;;;;;;5016994;28;20051;-75
2022/05/07 02:12:27;;;;;;;11.20;10.05;;;11.20;99.90;;;;;;5018760;28;20025;-75
2022/05/07 02:14:52;;;;;;;11.35;10.07;;;11.10;99.90;;;;;;5003672;28;20370;-75
2022/05/07 02:17:21;;;;;;;11.48;10.20;;;11.10;99.90;;;;;;5018722;28;20034;-75
2022/05/07 02:19:46;;;;;;;14.15;11.35;;;11.30;99.90;;;;;;5009765;28;20075;-75
2022/05/07 02:22:12;;;;;;;12.15;10.95;;;11.20;99.90;;;;;;5001537;28;20026;-75
2022/05/07 02:24:37;;;;;;;12.57;11.30;;;11.20;99.90;;;;;;5026012;28;20025;-75
2022/05/07 02:27:05;;;;;;;10.85;9.75;;;11.00;99.90;;;;;;5002710;28;20045;-75
2022/05/07 02:29:31;;;;;;;10.35;9.32;;;11.00;99.90;;;;;;5018654;28;20509;-75
2022/05/07 02:32:06;;;;;;;12.95;10.85;;;11.20;99.90;;;;;;5012297;28;20025;-75
2022/05/07 02:34:36;;;;;;;12.65;11.25;;;11.10;99.90;;;;;;5018070;28;20044;-75
2022/05/07 02:37:04;;;;;;;11.98;10.77;;;11.00;99.90;;;;;;5019081;28;20289;-75
2022/05/07 02:39:30;;;;;;;10.45;9.45;;;11.00;99.90;;;;;;5002895;28;20378;-75
2022/05/07 02:44:42;;;;;;;10.25;9.25;;;11.10;99.90;;;;;;5012306;28;20619;-75
2022/05/07 02:47:10;;;;;;;12.65;10.63;;;11.00;99.90;;;;;;5033263;28;20075;-75
2022/05/07 02:49:35;;;;;;;12.02;10.70;;;11.10;99.90;;;;;;5017707;28;20175;-75
2022/05/07 02:52:02;;;;;;;13.38;11.35;;;11.10;99.90;;;;;;5016574;28;21858;-75
2022/05/07 02:54:29;;;;;;;12.35;11.05;;;11.00;99.90;;;;;;5012366;28;20037;-75
2022/05/07 02:56:55;;;;;;;12.27;10.98;;;11.00;99.90;;;;;;5008085;28;20060;-75
2022/05/07 02:59:21;;;;;;;11.68;10.45;;;11.00;99.90;;;;;;5001267;28;22100;-75
2022/05/07 03:01:47;;;;;;;11.95;10.52;;;11.00;99.90;;;;;;5000719;28;20465;-75
2022/05/07 03:04:14;;;;;;;11.57;10.48;;;11.00;99.90;;;;;;4995913;28;20032;-75
2022/05/07 03:06:40;;;;;;;12.30;10.93;;;11.00;99.90;;;;;;5012253;28;20041;-76
2022/05/07 03:09:06;;;;;;;12.00;10.80;;;11.00;99.90;;;;;;5017331;28;20416;-75
2022/05/07 03:11:33;;;;;;;12.13;10.98;;;11.00;99.90;;;;;;5025053;28;20033;-75
2022/05/07 03:14:04;;;;;;;13.25;11.95;;;11.00;99.90;;;;;;5015896;28;20109;-75
2022/05/07 03:16:31;;;;;;;12.30;11.00;;;11.00;99.90;;;;;;5016553;28;20442;-75
2022/05/07 03:18:57;;;;;;;12.25;11.00;;;11.00;99.90;;;;;;5015929;28;20029;-75
2022/05/07 03:21:23;;;;;;;13.10;11.80;;;11.00;99.90;;;;;;5000406;28;20132;-75
2022/05/07 03:23:48;;;;;;;14.05;12.55;;;11.00;99.90;;;;;;5017340;28;20029;-75
2022/05/07 03:26:14;;;;;;;12.50;11.23;;;11.10;99.90;;;;;;5009313;28;20037;-75
2022/05/07 03:28:41;;;;;;;13.35;12.02;;;11.10;99.90;;;;;;5016002;28;20049;-75
2022/05/07 03:31:09;;;;;;;12.93;11.63;;;11.10;99.90;;;;;;5016786;28;20675;-75
2022/05/07 03:33:36;;;;;;;12.52;11.23;;;11.10;99.90;;;;;;4995406;28;22240;-75
2022/05/07 03:36:02;;;;;;;12.77;11.40;;;11.10;99.90;;;;;;5016311;28;20033;-75
2022/05/07 03:38:27;;;;;;;11.63;10.45;;;11.00;99.90;;;;;;5007789;28;20036;-75
2022/05/07 03:41:04;;;;;;;12.90;11.20;;;11.00;99.90;;;;;;5017632;28;20394;-75
2022/05/07 03:43:36;;;;;;;14.32;11.43;;;11.00;99.90;;;;;;5000625;28;20033;-75
2022/05/07 03:46:05;;;;;;;12.27;10.97;;;11.00;99.90;;;;;;5017822;28;20037;-75
2022/05/07 03:48:31;;;;;;;13.07;11.40;;;11.00;99.90;;;;;;5012603;28;20037;-75
2022/05/07 03:50:57;;;;;;;13.18;11.02;;;11.00;99.90;;;;;;5016028;28;21685;-75
2022/05/07 03:53:33;;;;;;;13.13;11.70;;;11.00;99.90;;;;;;5016227;28;20672;-76
2022/05/07 03:56:10;;;;;;;12.95;11.52;;;10.90;99.90;;;;;;5024089;28;20151;-75
2022/05/07 03:58:38;;;;;;;13.15;11.77;;;11.00;99.90;;;;;;5016689;28;20026;-75
2022/05/07 04:01:04;;;;;;;13.63;12.18;;;10.90;99.90;;;;;;5001002;28;20049;-75
2022/05/07 04:03:31;;;;;;;13.98;12.57;;;10.90;99.90;;;;;;5016726;28;20022;-75
2022/05/07 04:05:59;;;;;;;13.20;11.80;;;10.90;99.90;;;;;;5017144;28;20030;-75
2022/05/07 04:08:26;;;;;;;13.00;11.70;;;10.80;99.90;;;;;;5016278;28;20048;-75
2022/05/07 04:10:53;;;;;;;13.38;11.93;;;10.80;99.90;;;;;;4999913;28;20088;-76
2022/05/07 04:13:22;;;;;;;13.40;11.85;;;10.90;99.90;;;;;;5015007;28;20079;-75
2022/05/07 04:15:53;;;;;;;13.73;12.27;;;10.90;99.90;;;;;;5001999;28;20427;-75
2022/05/07 04:18:22;;;;;;;13.00;11.50;;;10.80;99.90;;;;;;5022566;28;20104;-75
2022/05/07 04:20:51;;;;;;;13.15;11.85;;;10.80;99.90;;;;;;5016323;28;20103;-75
2022/05/07 04:23:19;;;;;;;13.15;11.85;;;10.90;99.90;;;;;;5007451;28;20025;-75
2022/05/07 04:25:46;;;;;;;13.00;11.70;;;10.90;99.90;;;;;;5000343;28;20490;-75
2022/05/07 04:28:15;;;;;;;12.95;11.63;;;10.80;99.90;;;;;;4995030;28;20034;-74
2022/05/07 04:30:44;;;;;;;12.27;10.48;;;11.00;99.90;;;;;;5014938;28;20029;-75
2022/05/07 04:33:10;;;;;;;13.27;11.35;;;11.00;99.90;;;;;;5014102;28;20396;-75
2022/05/07 04:35:36;;;;;;;14.32;12.82;;;11.00;99.90;;;;;;5008514;28;20268;-75
2022/05/07 04:38:04;;;;;;;12.88;11.50;;;11.00;99.90;;;;;;4999706;28;20057;-75
2022/05/07 04:40:31;;;;;;;13.25;11.85;;;10.90;99.90;;;;;;5014577;28;20032;-75
2022/05/07 04:42:58;;;;;;;12.48;11.18;;;11.00;99.90;;;;;;5006424;28;20042;-75
2022/05/07 04:45:25;;;;;;;12.15;10.95;;;11.00;99.90;;;;;;4994203;28;20387;-75
2022/05/07 04:47:59;;;;;;;11.80;10.65;;;11.10;99.90;;;;;;5016174;28;20478;-75
2022/05/07 04:50:29;;;;;;;;;;;11.20;99.90;;;;;;5031700;28;20034;-75
2022/05/07 04:53:12;;;;;;;11.68;9.57;;;11.30;99.90;;;;;;5016541;28;19957;-75
2022/05/07 04:55:39;;;;;;;12.55;11.23;;;11.40;99.90;;;;;;5030906;28;20509;-75
2022/05/07 04:58:04;;;;;;;12.23;10.80;;;11.40;99.90;;;;;;5016482;28;20038;-75
2022/05/07 05:00:34;;;;;;;11.30;9.40;;;11.40;99.90;;;;;;5006959;28;20301;-75
2022/05/07 05:03:07;;;;;;;11.57;10.38;;;11.40;99.90;;;;;;4999022;28;20319;-76
2022/05/07 05:05:36;;;;;;;12.25;10.23;;;11.60;99.90;;;;;;4999894;28;20580;-75
2022/05/07 05:08:08;;;;;;;14.07;12.32;;;11.60;99.90;;;;;;5016859;28;20056;-75
2022/05/07 05:10:33;;;;;;;13.52;12.13;;;11.70;99.90;;;;;;5022314;28;20049;-76
2022/05/07 05:12:59;;;;;;;14.85;12.90;;;11.70;99.90;;;;;;5030804;28;20036;-75
2022/05/07 05:15:25;;;;;;;15.93;12.93;;;11.70;99.90;;;;;;5014285;28;20033;-75
2022/05/07 05:18:14;;;;;;;14.80;13.30;;;11.70;99.90;;;;;;5021578;28;20112;-75
2022/05/07 05:20:40;;;;;;;13.85;12.38;;;11.90;99.90;;;;;;5016341;28;20024;-75
2022/05/07 05:23:20;;;;;;;13.88;12.25;;;11.90;99.90;;;;;;5007573;28;20090;-76
2022/05/07 05:25:48;;;;;;;13.88;12.48;;;12.00;99.90;;;;;;4999064;28;20189;-75
2022/05/07 05:28:22;;;;;;;13.05;11.18;;;12.10;99.90;;;;;;5014868;28;20221;-74
2022/05/07 05:30:53;;;;;;;13.80;12.40;;;12.20;99.90;;;;;;5009962;28;20038;-75
2022/05/07 05:33:22;;;;;;;14.15;11.60;;;12.30;99.90;;;;;;5007817;28;20021;-75
2022/05/07 05:36:00;;;;;;;17.42;14.95;;;12.40;99.90;;;;;;5014388;28;20029;-75
2022/05/07 05:38:28;;;;;;;17.92;15.10;;;12.50;99.90;;;;;;5005732;28;20037;-76
2022/05/07 05:40:54;;;;;;;15.45;13.18;;;12.60;99.90;;;;;;4999049;28;20033;-76
2022/05/07 05:43:20;;;;;;;19.20;16.65;;;12.70;99.90;;;;;;5012716;28;20446;-76
2022/05/07 05:45:47;;;;;;;17.67;14.07;;;12.70;99.90;;;;;;5017682;28;20044;-76
2022/05/07 05:48:14;;;;;;;19.02;16.33;;;12.90;99.90;;;;;;5009143;28;20199;-76
2022/05/07 05:50:43;;;;;;;21.55;18.83;;;13.00;99.90;;;;;;5018266;28;20115;-76
2022/05/07 05:53:09;;;;;;;20.08;17.98;;;13.00;99.90;;;;;;5018387;28;20426;-76
2022/05/07 05:55:35;;;;;;;18.48;15.43;;;13.10;99.90;;;;;;5021991;28;20583;-76
2022/05/07 05:58:01;;;;;;;19.38;16.70;;;13.30;99.90;;;;;;5001209;28;20389;-75
2022/05/07 06:00:27;;;;;;;21.23;18.80;;;13.30;99.90;;;;;;5020547;28;20033;-76
2022/05/07 06:02:53;;;;;;;21.17;18.20;;;13.50;99.90;;;;;;5035473;28;20152;-76
2022/05/07 06:05:23;;;;;;;;;;;13.60;99.90;;;;;;5003724;28;20053;-77
2022/05/07 06:07:52;;;;;;;25.90;23.10;;;13.60;99.90;;;;;;5004018;28;19925;-77
2022/05/07 06:10:18;;;;;;;20.08;17.48;;;13.70;99.90;;;;;;5017508;28;20030;-76
2022/05/07 06:12:43;;;;;;;19.83;17.70;;;13.80;99.90;;;;;;4992421;28;20029;-76
2022/05/07 06:15:10;;;;;;;15.25;13.73;;;13.80;99.90;;;;;;5002962;28;20025;-76
2022/05/07 06:17:36;;;;;;;17.00;15.20;;;13.80;99.90;;;;;;5001522;28;20039;-76
2022/05/07 06:20:03;;;;;;;19.08;16.13;;;13.80;99.90;;;;;;5018504;28;20094;-76
2022/05/07 06:22:33;;;;;;;20.23;17.20;;;13.80;99.90;;;;;;5034117;28;20476;-76
2022/05/07 06:28:01;;;;;;;28.40;24.30;;;14.00;99.90;;;;;;5034023;28;20052;-77
2022/05/07 06:30:35;;;;;;;32.88;26.73;;;14.20;99.90;;;;;;5016861;28;20021;-76
2022/05/07 06:33:01;;;;;;;31.13;24.98;;;14.30;99.90;;;;;;4999830;28;20036;-76
2022/05/07 06:35:33;;;;;;;23.35;20.27;;;14.40;99.90;;;;;;4995023;28;20112;-77
2022/05/07 06:38:10;;;;;;;32.85;26.33;;;14.50;99.90;;;;;;4995590;28;20509;-76
2022/05/07 06:40:38;;;;;;;25.30;21.85;;;14.50;99.90;;;;;;5015667;28;20061;-77
2022/05/07 06:43:08;;;;;;;22.98;20.48;;;14.60;99.90;;;;;;4998856;28;20486;-76
2022/05/07 06:45:51;;;;;;;27.52;22.77;;;14.60;99.90;;;;;;5016556;28;20033;-77
2022/05/07 06:48:17;;;;;;;24.45;21.85;;;14.70;99.90;;;;;;5000666;28;20025;-77
2022/05/07 06:50:45;;;;;;;22.33;19.92;;;14.70;99.90;;;;;;5015829;28;20095;-77
2022/05/07 06:53:11;;;;;;;25.23;22.52;;;14.80;99.90;;;;;;5020089;28;20029;-76
2022/05/07 06:55:54;;;;;;;25.30;22.60;;;14.80;99.90;;;;;;5001629;28;20490;-76
2022/05/07 06:58:22;;;;;;;25.73;22.92;;;14.80;99.90;;;;;;5010425;28;20029;-77
2022/05/07 07:00:48;;;;;;;23.38;20.77;;;14.90;99.90;;;;;;5032857;28;20068;-76
2022/05/07 07:03:13;;;;;;;24.20;21.17;;;15.00;99.90;;;;;;5017665;28;20212;-77
2022/05/07 07:05:39;;;;;;;22.75;19.98;;;15.40;99.90;;;;;;5017406;28;20041;-76
2022/05/07 07:08:05;;;;;;;20.48;17.83;;;15.70;99.90;;;;;;5022805;28;20128;-77
2022/05/07 07:10:30;;;;;;;20.30;16.95;;;15.90;99.90;;;;;;5019951;28;20032;-77
2022/05/07 07:12:56;;;;;;;17.20;13.07;;;16.10;99.90;;;;;;5018333;28;20029;-77
2022/05/07 07:15:23;;;;;;;19.67;16.27;;;16.50;99.90;;;;;;5017100;28;20355;-76
2022/05/07 07:17:49;;;;;;;24.02;17.00;;;16.30;99.90;;;;;;5018005;28;20464;-77
2022/05/07 07:20:15;;;;;;;17.45;13.00;;;16.40;99.90;;;;;;4993505;28;20033;-77
2022/05/07 07:22:41;;;;;;;16.92;12.65;;;16.50;99.90;;;;;;5017751;28;20558;-77
2022/05/07 07:25:07;;;;;;;17.60;14.40;;;16.60;99.90;;;;;;5015447;28;20040;-77
2022/05/07 07:27:34;;;;;;;16.65;14.10;;;16.50;99.90;;;;;;5017514;28;20140;-77
2022/05/07 07:29:59;;;;;;;16.92;13.40;;;16.50;99.90;;;;;;4993326;28;20033;-76
2022/05/07 07:32:26;;;;;;;17.70;13.10;;;16.80;99.90;;;;;;5015787;28;20446;-76
2022/05/07 07:34:52;;;;;;;15.45;11.75;;;17.10;99.90;;;;;;4999236;28;20123;-77
2022/05/07 07:37:18;;;;;;;15.45;10.57;;;17.20;99.90;;;;;;5021312;28;20136;-77
2022/05/07 07:39:43;;;;;;;12.13;8.57;;;17.60;99.90;;;;;;5016780;28;20025;-77
2022/05/07 07:42:09;;;;;;;10.25;7.63;;;18.10;99.90;;;;;;5014118;28;20436;-77
2022/05/07 07:44:35;;;;;;;10.43;7.70;;;18.40;99.90;;;;;;5015446;28;20381;-77
2022/05/07 07:49:44;;;;;;;13.35;11.05;;;18.00;99.90;;;;;;5019244;28;20036;-77
2022/05/07 07:52:12;;;;;;;13.18;10.40;;;18.20;99.90;;;;;;4998197;28;20083;-78
2022/05/07 07:54:38;;;;;;;15.57;11.45;;;18.30;99.90;;;;;;5007997;28;20086;-77
2022/05/07 07:57:05;;;;;;;17.90;11.52;;;17.80;99.90;;;;;;5016046;28;20491;-76
2022/05/07 07:59:31;;;;;;;16.05;10.82;;;18.10;99.90;;;;;;5016150;28;20029;-77
2022/05/07 08:01:56;;;;;;;11.75;8.98;;;17.80;99.90;;;;;;4998197;28;20083;-77
2022/05/07 08:04:25;;;;;;;14.20;9.43;;;18.20;99.90;;;;;;5014681;28;20033;-77
2022/05/07 08:11:40;;;;;;;9.10;7.20;;;18.40;99.90;;;;;;5012862;28;20060;-77
2022/05/07 08:12:21;;;;;;;11.80;8.88;;;19.10;99.90;;;;;;5017629;28;20029;-77
2022/05/07 08:14:47;;;;;;;10.75;8.90;;;18.70;99.90;;;;;;4999361;28;20033;-77
2022/05/07 08:17:14;;;;;;;13.02;9.90;;;19.30;99.90;;;;;;5018435;28;20025;-77
2022/05/07 08:19:39;;;;;;;9.88;7.03;;;19.00;99.90;;;;;;5017624;28;20362;-77
2022/05/07 08:22:05;;;;;;;8.25;6.45;;;19.30;99.90;;;;;;5018202;28;20032;-77
2022/05/07 08:24:31;;;;;;;8.02;5.60;;;19.90;99.90;;;;;;5016822;28;20490;-77
2022/05/07 08:26:57;;;;;;;7.32;5.72;;;20.10;99.90;;;;;;5018253;28;20055;-77
2022/05/07 08:29:23;;;;;;;6.68;5.00;;;20.20;99.90;;;;;;5023273;28;20025;-78
2022/05/07 08:31:50;;;;;;;13.95;8.23;;;20.50;99.90;;;;;;5016489;28;20029;-77
2022/05/07 08:34:16;;;;;;;15.77;10.63;;;20.00;99.90;;;;;;5009393;28;20086;-77
2022/05/07 08:36:41;;;;;;;14.70;11.10;;;19.50;99.90;;;;;;5008238;28;20801;-77
2022/05/07 08:39:08;;;;;;;15.48;11.77;;;19.40;99.90;;;;;;5014745;28;20029;-77
2022/05/07 08:41:33;;;;;;;12.80;11.00;;;19.20;99.90;;;;;;5016593;28;20504;-77
2022/05/07 08:43:59;;;;;;;11.63;8.50;;;19.50;99.90;;;;;;5016945;28;20229;-77
2022/05/07 08:46:25;;;;;;;14.18;9.88;;;19.80;99.90;;;;;;4982576;28;20552;-78
2022/05/07 08:48:51;;;;;;;11.63;8.32;;;19.90;99.90;;;;;;5021334;28;20033;-78
2022/05/07 08:51:20;;;;;;;7.63;5.60;;;20.50;99.90;;;;;;5016389;28;20041;-77
2022/05/07 08:53:53;;;;;;;9.23;7.47;;;21.00;99.90;;;;;;4992533;28;20030;-78
2022/05/07 08:56:19;;;;;;;14.73;10.23;;;20.90;99.90;;;;;;5008725;28;20551;-79
2022/05/07 08:58:49;;;;;;;16.33;11.02;;;20.70;99.90;;;;;;5014090;28;21075;-77
2022/05/07 09:01:15;;;;;;;14.40;12.02;;;20.20;99.90;;;;;;5015883;28;20116;-78
2022/05/07 09:03:42;;;;;;;18.17;12.55;;;20.00;99.90;;;;;;5016366;28;20071;-78
2022/05/07 09:06:26;;;;;;;15.75;11.77;;;20.10;99.90;;;;;;5031274;28;20234;-77
2022/05/07 09:08:53;;;;;;;13.50;10.45;;;20.20;99.90;;;;;;5008940;28;20509;-78
2022/05/07 09:11:20;;;;;;;16.80;12.23;;;20.70;99.90;;;;;;5014560;28;20056;-78
2022/05/07 09:13:46;;;;;;;14.85;10.93;;;20.60;99.90;;;;;;5014604;28;20051;-77
2022/05/07 09:16:12;;;;;;;16.25;11.18;;;21.00;99.90;;;;;;5013325;28;20147;-78
2022/05/07 09:18:37;;;;;;;11.75;9.10;;;20.90;99.90;;;;;;5019266;28;20128;-78
2022/05/07 09:21:19;;;;;;;13.05;9.82;;;21.50;99.90;;;;;;5035363;28;20033;-78
2022/05/07 09:23:47;;;;;;;7.88;7.00;;;21.30;99.90;;;;;;5020217;28;20025;-78
2022/05/07 09:26:25;;;;;;;7.93;5.95;;;22.10;99.90;;;;;;4997330;28;20493;-78
2022/05/07 09:28:50;;;;;;;13.48;9.90;;;22.60;99.90;;;;;;5020885;28;20094;-79
2022/05/07 09:31:29;;;;;;;14.77;10.25;;;21.90;99.90;;;;;;5019731;28;20431;-78
2022/05/07 09:33:56;;;;;;;16.30;10.32;;;21.30;99.90;;;;;;4997282;28;20030;-78
2022/05/07 09:36:23;;;;;;;15.93;11.93;;;21.30;99.90;;;;;;5019786;28;20033;-78
2022/05/07 09:38:58;;;;;;;20.10;12.45;;;20.90;99.90;;;;;;5020107;28;20032;-77
2022/05/07 09:41:26;;;;;;;12.73;9.15;;;20.70;99.90;;;;;;5009893;28;20215;-78
2022/05/07 09:43:53;;;;;;;15.30;10.63;;;20.80;99.90;;;;;;5018292;28;20176;-78
2022/05/07 09:46:19;;;;;;;9.57;6.82;;;20.90;99.90;;;;;;5020305;28;20033;-78
2022/05/07 09:48:46;;;;;;;10.43;8.25;;;21.40;99.90;;;;;;5009863;28;20383;-78
2022/05/07 09:51:12;;;;;;;10.32;6.68;;;21.20;99.90;;;;;;5020435;28;20498;-78
2022/05/07 09:59:09;;;;;;;9.80;7.97;;;21.80;99.90;;;;;;5034100;28;20197;-78
2022/05/07 10:01:56;;;;;;;10.40;7.68;;;21.30;99.90;;;;;;5033727;28;20091;-78
2022/05/07 10:04:24;;;;;;;8.80;5.50;;;21.70;99.90;;;;;;5018713;28;20068;-77
2022/05/07 10:07:23;;;;;;;5.95;3.95;;;22.60;99.90;;;;;;5010844;28;20041;-79
2022/05/07 10:10:16;;;;;;;3.83;2.00;;;23.50;99.90;;;;;;5019562;28;20430;-79
2022/05/07 10:12:46;;;;;;;5.38;3.60;;;23.60;99.90;;;;;;5012022;28;20030;-78
2022/05/07 10:15:16;;;;;;;6.60;4.38;;;23.30;99.90;;;;;;5034022;28;20036;-78
2022/05/07 10:17:56;;;;;;;5.78;2.90;;;22.90;99.90;;;;;;5017700;28;20078;-78
2022/05/07 10:20:23;;;;;;;3.22;2.03;;;23.40;99.90;;;;;;4995742;28;20056;-79
2022/05/07 10:22:56;;;;;;;5.70;2.28;;;23.50;99.90;;;;;;5015386;28;20033;-78
2022/05/07 10:25:22;;;;;;;8.65;3.55;;;24.10;99.90;;;;;;5016239;28;20033;-79
2022/05/07 10:27:51;;;;;;;6.07;3.47;;;23.40;99.90;;;;;;5017909;28;20065;-78
2022/05/07 10:30:22;;;;;;;6.53;3.90;;;23.20;99.90;;;;;;5017243;28;20485;-78
2022/05/07 10:32:59;;;;;;;4.17;2.53;;;23.10;99.90;;;;;;5022270;28;20490;-78
2022/05/07 10:35:53;;;;;;;4.47;1.75;;;23.40;99.90;;;;;;5018567;28;20298;-78
2022/05/07 10:38:28;;;;;;;4.00;2.33;;;23.50;99.90;;;;;;5018624;28;20026;-78
2022/05/07 10:41:03;;;;;;;6.57;3.85;;;24.20;99.90;;;;;;4999953;28;20032;-79
2022/05/07 10:43:34;;;;;;;9.00;3.88;;;23.30;99.90;;;;;;5010388;28;20037;-79
2022/05/07 10:46:04;;;;;;;5.38;2.85;;;22.90;99.90;;;;;;5016556;28;20164;-78
2022/05/07 10:48:30;;;;;;;;;;;23.00;99.90;;;;;;5012554;28;20443;-78
2022/05/07 10:51:00;;;;;;;3.40;1.60;;;22.80;99.90;;;;;;5019117;28;19961;-78
2022/05/07 10:53:38;;;;;;;2.78;1.30;;;23.10;99.90;;;;;;5019548;28;20124;-78
2022/05/07 10:56:10;;;;;;;1.67;0.63;;;23.40;99.90;;;;;;5000113;28;20401;-78
2022/05/07 10:58:36;;;;;;;6.18;3.38;;;23.10;99.90;;;;;;5023978;28;20038;-78
2022/05/07 11:01:03;;;;;;;8.98;4.75;;;22.30;99.90;;;;;;5018938;28;20036;-78
2022/05/07 11:03:29;;;;;;;8.63;4.63;;;22.20;99.90;;;;;;5034340;28;20360;-78
2022/05/07 11:06:02;;;;;;;7.07;3.38;;;22.20;99.90;;;;;;5018166;28;20051;-78
2022/05/07 11:08:31;;;;;;;5.35;2.20;;;23.00;99.90;;;;;;5034524;28;20406;-78
2022/05/07 11:11:24;;;;;;;4.32;1.77;;;23.70;99.90;;;;;;5018098;28;20120;-78
2022/05/07 11:13:55;;;;;;;4.03;2.35;;;23.60;99.90;;;;;;5017400;28;20137;-78
2022/05/07 11:16:21;;;;;;;4.72;1.85;;;23.00;99.90;;;;;;5017745;28;20385;-78
2022/05/07 11:18:53;;;;;;;8.02;4.85;;;22.40;99.90;;;;;;5031836;28;20034;-78
2022/05/07 11:21:23;;;;;;;6.15;4.53;;;22.20;99.90;;;;;;5032244;28;20033;-78
2022/05/07 11:23:56;;;;;;;6.00;4.28;;;21.80;99.90;;;;;;5021274;28;20036;-78
2022/05/07 11:26:22;;;;;;;9.55;5.22;;;22.20;99.90;;;;;;5016048;28;20061;-77
2022/05/07 11:28:49;;;;;;;10.25;4.65;;;22.60;99.90;;;;;;5014742;28;20622;-78
2022/05/07 11:31:34;;;;;;;7.10;3.50;;;22.20;99.90;;;;;;5017050;28;20037;-77
2022/05/07 11:34:10;;;;;;;5.93;3.22;;;22.10;99.90;;;;;;5018001;28;20068;-78
2022/05/07 11:36:36;;;;;;;4.57;2.35;;;21.80;99.90;;;;;;5015673;28;20134;-78
2022/05/07 11:39:07;;;;;;;8.43;4.70;;;21.90;99.90;;;;;;5031631;28;20037;-78
2022/05/07 11:41:35;;;;;;;7.13;3.25;;;21.70;99.90;;;;;;5030833;28;20029;-78
2022/05/07 11:46:52;;;;;;;8.15;3.20;;;21.90;99.90;;;;;;5016052;28;20405;-78
2022/05/07 11:49:33;;;;;;;9.23;3.65;;;21.70;99.90;;;;;;5016247;28;20033;-78
2022/05/07 11:52:10;;;;;;;7.20;3.90;;;21.80;99.90;;;;;;4998893;28;20048;-78
2022/05/07 11:54:56;;;;;;;7.07;4.57;;;21.80;99.90;;;;;;5014778;28;20029;-79
2022/05/07 11:57:31;;;;;;;6.93;4.22;;;21.70;99.90;;;;;;5008902;28;20049;-78
2022/05/07 12:00:11;;;;;;;9.40;4.70;;;21.60;99.90;;;;;;5015100;28;20040;-79
2022/05/07 12:02:47;;;;;;;8.85;4.97;;;21.40;99.90;;;;;;5016184;28;20234;-78
2022/05/07 12:05:12;;;;;;;6.78;3.88;;;21.30;99.90;;;;;;5011427;28;20036;-77
2022/05/07 12:07:39;;;;;;;9.00;4.85;;;21.30;99.90;;;;;;5024266;28;20045;-78
2022/05/07 12:10:05;;;;;;;10.07;5.57;;;21.40;99.90;;;;;;5030729;28;20036;-78
2022/05/07 12:12:30;;;;;;;11.18;7.00;;;22.00;99.90;;;;;;5017348;28;20033;-77
2022/05/07 12:14:56;;;;;;;9.45;6.07;;;21.90;99.90;;;;;;5033425;28;20037;-77
2022/05/07 12:20:16;;;;;;;9.35;6.28;;;21.30;99.90;;;;;;5011444;28;20041;-78
2022/05/07 12:30:54;;;;;;;7.47;4.63;;;20.50;99.90;;;;;;5014530;28;20037;-78
2022/05/07 12:33:20;;;;;;;10.15;6.30;;;20.10;99.90;;;;;;5014752;28;20025;-78
2022/05/07 12:35:46;;;;;;;13.23;7.07;;;19.80;99.90;;;;;;4996329;28;20711;-77
2022/05/07 12:38:11;;;;;;;15.63;9.25;;;19.20;99.90;;;;;;5014743;28;20056;-78
2022/05/07 12:40:38;;;;;;;11.38;7.78;;;18.50;99.90;;;;;;5014153;28;20397;-77
2022/05/07 12:43:03;;;;;;;10.68;6.78;;;17.90;99.90;;;;;;5014139;28;20048;-78
2022/05/07 12:45:29;;;;;;;12.95;7.45;;;17.60;99.90;;;;;;5014546;28;20029;-78
2022/05/07 12:47:55;;;;;;;9.77;6.22;;;17.40;99.90;;;;;;5014936;28;20041;-77
2022/05/07 12:50:20;;;;;;;6.72;3.70;;;17.20;99.90;;;;;;5016615;28;20127;-78
2022/05/07 12:52:46;;;;;;;9.98;5.03;;;17.20;99.90;;;;;;5016757;28;20033;-78
2022/05/07 12:55:12;;;;;;;10.32;4.13;;;17.00;99.90;;;;;;5019557;28;20046;-78
2022/05/07 12:57:38;;;;;;;7.72;3.67;;;16.80;99.90;;;;;;5019136;28;20049;-77
2022/05/07 13:00:04;;;;;;;6.80;3.88;;;16.60;99.90;;;;;;5021585;28;20284;-77
2022/05/07 13:02:30;;;;;;;8.10;3.80;;;16.50;99.90;;;;;;5035004;28;20048;-76
2022/05/07 13:04:56;;;;;;;6.82;3.10;;;16.40;99.90;;;;;;5035576;28;20109;-77
2022/05/07 13:07:22;;;;;;;8.93;4.70;;;16.50;99.90;;;;;;5003722;28;20377;-76
2022/05/07 13:09:47;;;;;;;8.60;4.60;;;16.10;99.90;;;;;;5019511;28;20033;-76
2022/05/07 13:12:13;;;;;;;9.50;5.72;;;15.90;99.90;;;;;;5021946;28;20045;-76
2022/05/07 13:14:40;;;;;;;11.88;4.85;;;15.80;99.90;;;;;;5020555;28;20030;-76
2022/05/07 13:17:05;;;;;;;4.40;2.78;;;16.00;99.90;;;;;;5022286;28;20461;-77
2022/05/07 13:19:31;;;;;;;4.30;2.05;;;16.30;99.90;;;;;;5020258;28;20059;-75
2022/05/07 13:21:57;;;;;;;4.15;1.98;;;16.30;99.90;;;;;;5025926;28;20453;-76